Columbus Junction, Iowa
Current Conditions -  °F | °C
As of 2:15 PM on Sunday 23 Nov 2014 (Local Time) from KMUT Reporting Station
Light Rain Light Rain  
Wind Chill: 52°   Ceiling: 400
Heat Index: 52°   Visibility: 1.5mi
Dew Point: 50°   Wind: 7mph
Humidity: 94%   Direction: 160°SSE
Pressure: 29.38"   Gusts: NA
Location:  41.28°N, 91.36°W
Report Text: KMUT 232015Z AUTO 16006KT 1 1/2SM -RA OVC004 11/10 A2938 RMK AO2
Loading
Personal Weather Stations






























Interactive Weather Map New forecast layout! Learn more

10-Day Weather Forecast

Advertisements
Track Severe Weather on mobile